sensor_id;sensor_type;location;lat;lon;timestamp;pressure;altitude;pressure_sealevel;temperature;humidity
6413;BME280;3239;48.714;9.472;2022-08-03T00:00:06;98625.38;;;18.53;100.00
6413;BME280;3239;48.714;9.472;2022-08-03T00:02:32;98641.13;;;18.51;100.00
6413;BME280;3239;48.714;9.472;2022-08-03T00:04:58;98647.06;;;18.47;100.00
6413;BME280;3239;48.714;9.472;2022-08-03T00:07:24;98639.31;;;18.46;100.00
6413;BME280;3239;48.714;9.472;2022-08-03T00:09:50;98636.13;;;18.49;100.00
6413;BME280;3239;48.714;9.472;2022-08-03T00:12:16;98639.88;;;18.44;100.00
6413;BME280;3239;48.714;9.472;2022-08-03T00:14:42;98636.44;;;18.29;100.00
6413;BME280;3239;48.714;9.472;2022-08-03T00:17:08;98650.84;;;18.03;100.00
6413;BME280;3239;48.714;9.472;2022-08-03T00:19:33;98661.34;;;18.12;100.00
6413;BME280;3239;48.714;9.472;2022-08-03T00:21:59;98667.03;;;18.14;100.00
6413;BME280;3239;48.714;9.472;2022-08-03T00:24:25;98666.84;;;18.19;100.00
6413;BME280;3239;48.714;9.472;2022-08-03T00:26:51;98666.25;;;18.21;100.00
6413;BME280;3239;48.714;9.472;2022-08-03T00:29:17;98668.06;;;18.26;100.00
6413;BME280;3239;48.714;9.472;2022-08-03T00:31:43;98659.25;;;18.20;100.00
6413;BME280;3239;48.714;9.472;2022-08-03T00:34:08;98669.13;;;18.06;100.00
6413;BME280;3239;48.714;9.472;2022-08-03T00:36:34;98677.75;;;18.17;100.00
6413;BME280;3239;48.714;9.472;2022-08-03T00:39:00;98668.31;;;18.20;100.00
6413;BME280;3239;48.714;9.472;2022-08-03T00:41:26;98648.72;;;18.18;100.00
6413;BME280;3239;48.714;9.472;2022-08-03T00:43:51;98657.81;;;18.11;100.00
6413;BME280;3239;48.714;9.472;2022-08-03T00:46:17;98664.06;;;18.19;100.00
6413;BME280;3239;48.714;9.472;2022-08-03T00:48:43;98656.50;;;18.12;100.00
6413;BME280;3239;48.714;9.472;2022-08-03T00:51:09;98663.56;;;18.13;100.00
6413;BME280;3239;48.714;9.472;2022-08-03T00:53:35;98658.75;;;18.06;100.00
6413;BME280;3239;48.714;9.472;2022-08-03T00:56:01;98662.69;;;18.03;100.00
6413;BME280;3239;48.714;9.472;2022-08-03T00:58:33;98651.00;;;18.05;100.00
6413;BME280;3239;48.714;9.472;2022-08-03T01:00:59;98669.50;;;18.02;100.00
6413;BME280;3239;48.714;9.472;2022-08-03T01:03:25;98657.34;;;17.98;100.00
6413;BME280;3239;48.714;9.472;2022-08-03T01:09:18;98674.91;;;17.93;100.00
6413;BME280;3239;48.714;9.472;2022-08-03T01:12:10;98680.81;;;17.97;100.00
6413;BME280;3239;48.714;9.472;2022-08-03T01:14:50;98675.84;;;17.95;100.00
6413;BME280;3239;48.714;9.472;2022-08-03T01:17:27;98668.16;;;17.79;100.00
6413;BME280;3239;48.714;9.472;2022-08-03T01:20:13;98668.19;;;17.71;100.00
6413;BME280;3239;48.714;9.472;2022-08-03T01:23:58;98679.06;;;17.77;100.00
6413;BME280;3239;48.714;9.472;2022-08-03T01:31:40;98666.56;;;17.61;100.00
6413;BME280;3239;48.714;9.472;2022-08-03T01:34:12;98670.81;;;17.62;100.00
6413;BME280;3239;48.714;9.472;2022-08-03T01:36:45;98676.34;;;17.62;100.00
6413;BME280;3239;48.714;9.472;2022-08-03T01:39:13;98666.53;;;17.68;100.00
6413;BME280;3239;48.714;9.472;2022-08-03T01:42:00;98670.59;;;17.67;100.00
6413;BME280;3239;48.714;9.472;2022-08-03T01:44:34;98661.22;;;17.63;100.00
6413;BME280;3239;48.714;9.472;2022-08-03T01:47:02;98661.56;;;17.59;100.00
6413;BME280;3239;48.714;9.472;2022-08-03T01:49:32;98660.50;;;17.47;100.00
6413;BME280;3239;48.714;9.472;2022-08-03T01:51:58;98668.28;;;17.49;100.00
6413;BME280;3239;48.714;9.472;2022-08-03T01:54:26;98672.72;;;17.44;100.00
6413;BME280;3239;48.714;9.472;2022-08-03T01:56:56;98675.28;;;17.50;100.00
6413;BME280;3239;48.714;9.472;2022-08-03T01:59:24;98676.03;;;17.50;100.00
6413;BME280;3239;48.714;9.472;2022-08-03T02:01:50;98674.59;;;17.42;100.00
6413;BME280;3239;48.714;9.472;2022-08-03T02:04:17;98674.00;;;17.43;100.00
6413;BME280;3239;48.714;9.472;2022-08-03T02:06:46;98676.22;;;17.45;100.00
6413;BME280;3239;48.714;9.472;2022-08-03T02:09:14;98671.63;;;17.40;100.00
6413;BME280;3239;48.714;9.472;2022-08-03T02:11:42;98674.19;;;17.38;100.00
6413;BME280;3239;48.714;9.472;2022-08-03T02:14:09;98672.34;;;17.33;100.00
6413;BME280;3239;48.714;9.472;2022-08-03T02:16:36;98674.00;;;17.36;100.00
6413;BME280;3239;48.714;9.472;2022-08-03T02:19:05;98672.53;;;17.35;100.00
6413;BME280;3239;48.714;9.472;2022-08-03T02:21:35;98661.84;;;17.24;100.00
6413;BME280;3239;48.714;9.472;2022-08-03T02:24:02;98666.47;;;17.21;100.00
6413;BME280;3239;48.714;9.472;2022-08-03T02:26:30;98673.47;;;17.22;100.00
6413;BME280;3239;48.714;9.472;2022-08-03T02:29:10;98672.00;;;17.14;100.00
6413;BME280;3239;48.714;9.472;2022-08-03T02:31:38;98670.00;;;17.07;100.00
6413;BME280;3239;48.714;9.472;2022-08-03T02:34:11;98679.41;;;17.11;100.00
6413;BME280;3239;48.714;9.472;2022-08-03T02:36:39;98680.53;;;17.08;100.00
6413;BME280;3239;48.714;9.472;2022-08-03T02:39:09;98679.75;;;17.15;100.00
6413;BME280;3239;48.714;9.472;2022-08-03T02:41:50;98674.78;;;17.14;100.00
6413;BME280;3239;48.714;9.472;2022-08-03T02:44:22;98672.38;;;17.10;100.00
6413;BME280;3239;48.714;9.472;2022-08-03T02:46:56;98678.84;;;17.05;100.00
6413;BME280;3239;48.714;9.472;2022-08-03T02:49:24;98670.00;;;16.99;100.00
6413;BME280;3239;48.714;9.472;2022-08-03T02:51:52;98675.00;;;17.01;100.00
6413;BME280;3239;48.714;9.472;2022-08-03T02:54:22;98667.78;;;16.98;100.00
6413;BME280;3239;48.714;9.472;2022-08-03T02:56:49;98683.69;;;16.97;100.00
6413;BME280;3239;48.714;9.472;2022-08-03T02:59:17;98683.31;;;17.01;100.00
6413;BME280;3239;48.714;9.472;2022-08-03T03:01:44;98684.59;;;17.00;100.00
6413;BME280;3239;48.714;9.472;2022-08-03T03:04:11;98691.59;;;17.01;100.00
6413;BME280;3239;48.714;9.472;2022-08-03T03:06:38;98684.03;;;17.01;100.00
6413;BME280;3239;48.714;9.472;2022-08-03T03:09:05;98680.34;;;16.99;100.00
6413;BME280;3239;48.714;9.472;2022-08-03T03:11:31;98679.41;;;16.96;100.00
6413;BME280;3239;48.714;9.472;2022-08-03T03:14:00;98679.25;;;16.94;100.00
6413;BME280;3239;48.714;9.472;2022-08-03T03:16:27;98689.38;;;16.92;100.00
6413;BME280;3239;48.714;9.472;2022-08-03T03:18:54;98686.44;;;16.90;100.00
6413;BME280;3239;48.714;9.472;2022-08-03T03:21:21;98685.16;;;16.83;100.00
6413;BME280;3239;48.714;9.472;2022-08-03T03:23:48;98685.88;;;16.91;100.00
6413;BME280;3239;48.714;9.472;2022-08-03T03:26:15;98684.41;;;16.83;100.00
6413;BME280;3239;48.714;9.472;2022-08-03T03:28:41;98684.41;;;16.75;100.00
6413;BME280;3239;48.714;9.472;2022-08-03T03:31:08;98692.34;;;16.79;100.00
6413;BME280;3239;48.714;9.472;2022-08-03T03:33:35;98690.31;;;16.79;100.00
6413;BME280;3239;48.714;9.472;2022-08-03T03:36:02;98684.22;;;16.73;100.00
6413;BME280;3239;48.714;9.472;2022-08-03T03:38:29;98688.28;;;16.72;100.00
6413;BME280;3239;48.714;9.472;2022-08-03T03:40:56;98684.97;;;16.66;100.00
6413;BME280;3239;48.714;9.472;2022-08-03T03:43:23;98691.59;;;16.63;100.00
6413;BME280;3239;48.714;9.472;2022-08-03T03:45:50;98687.91;;;16.61;100.00
6413;BME280;3239;48.714;9.472;2022-08-03T03:48:18;98693.66;;;16.63;100.00
6413;BME280;3239;48.714;9.472;2022-08-03T03:50:44;98695.50;;;16.68;100.00
6413;BME280;3239;48.714;9.472;2022-08-03T03:53:12;98700.28;;;16.60;100.00
6413;BME280;3239;48.714;9.472;2022-08-03T03:55:39;98697.88;;;16.56;100.00
6413;BME280;3239;48.714;9.472;2022-08-03T03:58:05;98705.03;;;16.52;100.00
6413;BME280;3239;48.714;9.472;2022-08-03T04:00:32;98701.19;;;16.55;100.00
6413;BME280;3239;48.714;9.472;2022-08-03T04:02:58;98701.38;;;16.57;100.00
6413;BME280;3239;48.714;9.472;2022-08-03T04:05:24;98698.03;;;16.58;100.00
6413;BME280;3239;48.714;9.472;2022-08-03T04:08:13;98692.13;;;16.54;100.00
6413;BME280;3239;48.714;9.472;2022-08-03T04:13:59;98708.56;;;16.52;100.00
6413;BME280;3239;48.714;9.472;2022-08-03T04:16:32;98708.41;;;16.58;100.00
6413;BME280;3239;48.714;9.472;2022-08-03T04:19:07;98717.41;;;16.58;100.00
6413;BME280;3239;48.714;9.472;2022-08-03T04:21:37;98711.88;;;16.58;100.00
6413;BME280;3239;48.714;9.472;2022-08-03T04:24:07;98711.50;;;16.54;100.00
6413;BME280;3239;48.714;9.472;2022-08-03T04:26:38;98710.22;;;16.55;100.00
6413;BME280;3239;48.714;9.472;2022-08-03T04:29:06;98706.16;;;16.56;100.00
6413;BME280;3239;48.714;9.472;2022-08-03T04:31:34;98701.19;;;16.55;100.00
6413;BME280;3239;48.714;9.472;2022-08-03T04:34:01;98709.66;;;16.57;100.00
6413;BME280;3239;48.714;9.472;2022-08-03T04:36:32;98711.72;;;16.56;100.00
6413;BME280;3239;48.714;9.472;2022-08-03T04:39:10;98710.97;;;16.63;100.00
6413;BME280;3239;48.714;9.472;2022-08-03T04:41:38;98717.78;;;16.62;100.00
6413;BME280;3239;48.714;9.472;2022-08-03T04:44:05;98721.88;;;16.69;100.00
6413;BME280;3239;48.714;9.472;2022-08-03T04:46:37;98711.16;;;16.65;100.00
6413;BME280;3239;48.714;9.472;2022-08-03T04:49:05;98717.63;;;16.60;100.00
6413;BME280;3239;48.714;9.472;2022-08-03T04:51:32;98722.41;;;16.67;100.00
6413;BME280;3239;48.714;9.472;2022-08-03T04:53:59;98718.19;;;16.74;100.00
6413;BME280;3239;48.714;9.472;2022-08-03T04:56:26;98720.59;;;16.77;100.00
6413;BME280;3239;48.714;9.472;2022-08-03T04:58:52;98726.50;;;16.74;100.00
6413;BME280;3239;48.714;9.472;2022-08-03T05:01:18;98728.84;;;16.55;100.00
6413;BME280;3239;48.714;9.472;2022-08-03T05:03:45;98733.09;;;16.71;100.00
6413;BME280;3239;48.714;9.472;2022-08-03T05:06:11;98738.66;;;16.71;100.00
6413;BME280;3239;48.714;9.472;2022-08-03T05:08:38;98736.63;;;16.64;100.00
6413;BME280;3239;48.714;9.472;2022-08-03T05:11:04;98741.59;;;16.65;100.00
6413;BME280;3239;48.714;9.472;2022-08-03T05:13:30;98751.72;;;16.70;100.00
6413;BME280;3239;48.714;9.472;2022-08-03T05:15:56;98755.81;;;16.77;100.00
6413;BME280;3239;48.714;9.472;2022-08-03T05:18:22;98755.81;;;16.77;100.00
6413;BME280;3239;48.714;9.472;2022-08-03T05:20:48;98757.47;;;16.80;100.00
6413;BME280;3239;48.714;9.472;2022-08-03T05:23:14;98763.00;;;16.80;100.00
6413;BME280;3239;48.714;9.472;2022-08-03T05:25:39;98766.34;;;16.93;100.00
6413;BME280;3239;48.714;9.472;2022-08-03T05:28:05;98768.19;;;16.98;100.00
6413;BME280;3239;48.714;9.472;2022-08-03T05:30:31;98765.22;;;17.11;100.00
6413;BME280;3239;48.714;9.472;2022-08-03T05:32:57;98759.16;;;17.20;100.00
6413;BME280;3239;48.714;9.472;2022-08-03T05:35:24;98748.06;;;17.28;100.00
6413;BME280;3239;48.714;9.472;2022-08-03T05:37:50;98748.06;;;17.35;100.00
6413;BME280;3239;48.714;9.472;2022-08-03T05:40:16;98740.66;;;17.30;100.00
6413;BME280;3239;48.714;9.472;2022-08-03T05:42:42;98737.16;;;17.30;100.00
6413;BME280;3239;48.714;9.472;2022-08-03T05:45:09;98731.44;;;17.28;100.00
6413;BME280;3239;48.714;9.472;2022-08-03T05:47:43;98730.69;;;17.50;100.00
6413;BME280;3239;48.714;9.472;2022-08-03T05:50:13;98723.25;;;17.67;100.00
6413;BME280;3239;48.714;9.472;2022-08-03T05:52:40;98709.78;;;17.71;100.00
6413;BME280;3239;48.714;9.472;2022-08-03T05:55:08;98699.50;;;17.89;100.00
6413;BME280;3239;48.714;9.472;2022-08-03T05:57:34;98686.13;;;18.02;100.00
6413;BME280;3239;48.714;9.472;2022-08-03T06:00:06;98665.75;;;18.15;100.00
6413;BME280;3239;48.714;9.472;2022-08-03T06:02:32;98648.72;;;18.18;100.00
6413;BME280;3239;48.714;9.472;2022-08-03T06:04:58;98642.16;;;18.31;100.00
6413;BME280;3239;48.714;9.472;2022-08-03T06:07:24;98637.09;;;18.44;100.00
6413;BME280;3239;48.714;9.472;2022-08-03T06:09:50;98627.94;;;18.59;100.00
6413;BME280;3239;48.714;9.472;2022-08-03T06:12:15;98619.84;;;18.70;100.00
6413;BME280;3239;48.714;9.472;2022-08-03T06:14:41;98601.53;;;18.92;100.00
6413;BME280;3239;48.714;9.472;2022-08-03T06:17:07;98580.22;;;19.11;100.00
6413;BME280;3239;48.714;9.472;2022-08-03T06:19:33;98565.25;;;19.41;100.00
6413;BME280;3239;48.714;9.472;2022-08-03T06:21:58;98544.50;;;19.68;100.00
6413;BME280;3239;48.714;9.472;2022-08-03T06:24:24;98515.25;;;20.03;100.00
6413;BME280;3239;48.714;9.472;2022-08-03T06:26:50;98495.03;;;20.48;100.00
6413;BME280;3239;48.714;9.472;2022-08-03T06:29:16;98460.03;;;20.93;100.00
6413;BME280;3239;48.714;9.472;2022-08-03T06:31:41;98428.38;;;20.88;100.00
6413;BME280;3239;48.714;9.472;2022-08-03T06:34:07;98425.72;;;21.09;100.00
6413;BME280;3239;48.714;9.472;2022-08-03T06:36:33;98402.44;;;21.45;100.00
6413;BME280;3239;48.714;9.472;2022-08-03T06:38:59;98404.41;;;21.63;100.00
6413;BME280;3239;48.714;9.472;2022-08-03T06:41:26;98391.34;;;21.66;100.00
6413;BME280;3239;48.714;9.472;2022-08-03T06:43:52;98379.19;;;21.92;100.00
6413;BME280;3239;48.714;9.472;2022-08-03T06:46:19;98366.56;;;22.54;100.00
6413;BME280;3239;48.714;9.472;2022-08-03T06:48:45;98344.88;;;22.75;100.00
6413;BME280;3239;48.714;9.472;2022-08-03T06:51:11;98338.28;;;23.38;100.00
6413;BME280;3239;48.714;9.472;2022-08-03T06:53:37;98324.50;;;22.96;100.00
6413;BME280;3239;48.714;9.472;2022-08-03T06:56:07;98327.81;;;23.15;100.00
6413;BME280;3239;48.714;9.472;2022-08-03T06:58:33;98315.91;;;23.38;100.00
6413;BME280;3239;48.714;9.472;2022-08-03T07:00:59;98313.31;;;23.88;100.00
6413;BME280;3239;48.714;9.472;2022-08-03T07:03:25;98298.09;;;24.64;100.00
6413;BME280;3239;48.714;9.472;2022-08-03T07:05:51;98285.13;;;24.45;100.00
6413;BME280;3239;48.714;9.472;2022-08-03T07:08:17;98286.88;;;25.16;100.00
6413;BME280;3239;48.714;9.472;2022-08-03T07:10:44;98282.34;;;25.63;100.00
6413;BME280;3239;48.714;9.472;2022-08-03T07:13:10;98282.13;;;25.45;100.00
6413;BME280;3239;48.714;9.472;2022-08-03T07:15:36;98274.88;;;24.75;100.00
6413;BME280;3239;48.714;9.472;2022-08-03T07:18:02;98278.88;;;24.97;100.00
6413;BME280;3239;48.714;9.472;2022-08-03T07:20:29;98271.78;;;24.57;100.00
6413;BME280;3239;48.714;9.472;2022-08-03T07:22:54;98262.59;;;25.20;100.00
6413;BME280;3239;48.714;9.472;2022-08-03T07:25:20;98265.28;;;25.18;100.00
6413;BME280;3239;48.714;9.472;2022-08-03T07:27:47;98264.94;;;24.85;100.00
6413;BME280;3239;48.714;9.472;2022-08-03T07:30:14;98255.22;;;25.54;100.00
6413;BME280;3239;48.714;9.472;2022-08-03T07:32:41;98253.56;;;25.49;100.00
6413;BME280;3239;48.714;9.472;2022-08-03T07:35:09;98243.44;;;27.02;100.00
6413;BME280;3239;48.714;9.472;2022-08-03T07:37:35;98229.28;;;26.85;100.00
6413;BME280;3239;48.714;9.472;2022-08-03T07:40:04;98227.13;;;26.68;100.00
6413;BME280;3239;48.714;9.472;2022-08-03T07:42:30;98222.59;;;26.61;100.00
6413;BME280;3239;48.714;9.472;2022-08-03T07:44:57;98233.44;;;25.95;100.00
6413;BME280;3239;48.714;9.472;2022-08-03T07:47:26;98239.75;;;26.09;100.00
6413;BME280;3239;48.714;9.472;2022-08-03T07:49:54;98233.63;;;26.57;100.00
6413;BME280;3239;48.714;9.472;2022-08-03T07:52:20;98228.75;;;26.88;100.00
6413;BME280;3239;48.714;9.472;2022-08-03T07:55:08;98228.22;;;27.56;100.00
6413;BME280;3239;48.714;9.472;2022-08-03T07:57:35;98222.03;;;28.45;100.00
6413;BME280;3239;48.714;9.472;2022-08-03T08:00:06;98214.00;;;29.72;93.37
6413;BME280;3239;48.714;9.472;2022-08-03T08:02:34;98218.09;;;29.28;89.30
6413;BME280;3239;48.714;9.472;2022-08-03T08:04:59;98208.34;;;29.72;92.78
6413;BME280;3239;48.714;9.472;2022-08-03T08:07:25;98208.41;;;30.38;87.20
6413;BME280;3239;48.714;9.472;2022-08-03T08:09:51;98201.38;;;30.18;78.89
6413;BME280;3239;48.714;9.472;2022-08-03T08:12:17;98203.44;;;30.39;78.19
6413;BME280;3239;48.714;9.472;2022-08-03T08:14:42;98200.44;;;29.08;85.95
6413;BME280;3239;48.714;9.472;2022-08-03T08:17:11;98204.63;;;29.26;91.78
6413;BME280;3239;48.714;9.472;2022-08-03T08:19:37;98196.69;;;29.01;90.96
6413;BME280;3239;48.714;9.472;2022-08-03T08:22:03;98189.78;;;30.55;82.75
6413;BME280;3239;48.714;9.472;2022-08-03T08:24:30;98200.16;;;32.29;73.81
6413;BME280;3239;48.714;9.472;2022-08-03T08:26:56;98192.56;;;31.25;70.50
6413;BME280;3239;48.714;9.472;2022-08-03T08:29:21;98200.25;;;30.72;79.61
6413;BME280;3239;48.714;9.472;2022-08-03T08:31:48;98200.22;;;30.48;80.13
6413;BME280;3239;48.714;9.472;2022-08-03T08:34:15;98189.19;;;30.35;78.62
6413;BME280;3239;48.714;9.472;2022-08-03T08:36:41;98198.41;;;30.59;86.49
6413;BME280;3239;48.714;9.472;2022-08-03T08:39:07;98198.72;;;30.45;86.39
6413;BME280;3239;48.714;9.472;2022-08-03T08:41:32;98187.72;;;31.30;74.13
6413;BME280;3239;48.714;9.472;2022-08-03T08:44:00;98189.44;;;30.90;78.51
6413;BME280;3239;48.714;9.472;2022-08-03T08:46:26;98189.09;;;30.78;78.31
6413;BME280;3239;48.714;9.472;2022-08-03T08:48:56;98181.28;;;31.80;76.29
6413;BME280;3239;48.714;9.472;2022-08-03T08:51:28;98184.59;;;32.00;65.05
6413;BME280;3239;48.714;9.472;2022-08-03T08:53:56;98183.16;;;32.29;66.59
6413;BME280;3239;48.714;9.472;2022-08-03T08:56:24;98182.53;;;31.20;71.07
6413;BME280;3239;48.714;9.472;2022-08-03T08:58:53;98183.72;;;32.23;62.86
6413;BME280;3239;48.714;9.472;2022-08-03T09:01:22;98180.38;;;32.01;68.57
6413;BME280;3239;48.714;9.472;2022-08-03T09:03:48;98181.94;;;32.38;66.31
6413;BME280;3239;48.714;9.472;2022-08-03T09:06:15;98183.19;;;33.71;59.51
6413;BME280;3239;48.714;9.472;2022-08-03T09:08:41;98175.88;;;33.58;56.63
6413;BME280;3239;48.714;9.472;2022-08-03T09:11:07;98177.06;;;32.42;65.79
6413;BME280;3239;48.714;9.472;2022-08-03T09:13:34;98179.28;;;33.50;59.95
6413;BME280;3239;48.714;9.472;2022-08-03T09:16:21;98179.06;;;32.36;63.62
6413;BME280;3239;48.714;9.472;2022-08-03T09:18:50;98175.06;;;33.16;60.69
6413;BME280;3239;48.714;9.472;2022-08-03T09:23:55;98173.50;;;33.44;61.09
6413;BME280;3239;48.714;9.472;2022-08-03T09:26:23;98172.81;;;33.46;56.68
6413;BME280;3239;48.714;9.472;2022-08-03T09:29:09;98167.84;;;33.46;56.01
6413;BME280;3239;48.714;9.472;2022-08-03T09:31:42;98170.22;;;33.22;58.76
6413;BME280;3239;48.714;9.472;2022-08-03T09:34:11;98165.44;;;33.72;53.99
6413;BME280;3239;48.714;9.472;2022-08-03T09:36:49;98165.03;;;33.48;54.97
6413;BME280;3239;48.714;9.472;2022-08-03T09:39:22;98159.03;;;33.30;58.38
6413;BME280;3239;48.714;9.472;2022-08-03T09:44:43;98161.97;;;34.71;49.22
6413;BME280;3239;48.714;9.472;2022-08-03T09:47:11;98169.97;;;33.46;55.89
6413;BME280;3239;48.714;9.472;2022-08-03T09:49:39;98157.97;;;33.14;50.04
6413;BME280;3239;48.714;9.472;2022-08-03T09:52:18;98159.47;;;33.54;51.83
6413;BME280;3239;48.714;9.472;2022-08-03T09:54:55;98153.19;;;34.05;50.78
6413;BME280;3239;48.714;9.472;2022-08-03T09:57:26;98144.47;;;34.94;47.02
6413;BME280;3239;48.714;9.472;2022-08-03T09:59:53;98142.47;;;35.77;42.03
6413;BME280;3239;48.714;9.472;2022-08-03T10:02:26;98146.31;;;34.72;42.45
6413;BME280;3239;48.714;9.472;2022-08-03T10:04:53;98151.91;;;33.69;42.04
6413;BME280;3239;48.714;9.472;2022-08-03T10:07:22;98150.31;;;34.51;40.43
6413;BME280;3239;48.714;9.472;2022-08-03T10:10:01;98142.97;;;34.34;44.98
6413;BME280;3239;48.714;9.472;2022-08-03T10:12:28;98137.53;;;35.11;41.23
6413;BME280;3239;48.714;9.472;2022-08-03T10:14:54;98134.56;;;34.97;41.06
6413;BME280;3239;48.714;9.472;2022-08-03T10:17:21;98137.00;;;34.65;39.83
6413;BME280;3239;48.714;9.472;2022-08-03T10:19:48;98134.47;;;34.91;35.85
6413;BME280;3239;48.714;9.472;2022-08-03T10:22:26;98133.25;;;35.82;35.63
6413;BME280;3239;48.714;9.472;2022-08-03T10:25:05;98132.84;;;35.40;35.60
6413;BME280;3239;48.714;9.472;2022-08-03T10:27:38;98129.75;;;34.56;37.00
6413;BME280;3239;48.714;9.472;2022-08-03T10:30:08;98128.41;;;36.04;36.20
6413;BME280;3239;48.714;9.472;2022-08-03T10:32:42;98115.47;;;35.91;36.09
6413;BME280;3239;48.714;9.472;2022-08-03T10:35:13;98116.72;;;35.66;36.53
6413;BME280;3239;48.714;9.472;2022-08-03T10:38:06;98119.47;;;36.58;34.08
6413;BME280;3239;48.714;9.472;2022-08-03T10:40:31;98116.91;;;35.90;35.21
6413;BME280;3239;48.714;9.472;2022-08-03T10:43:08;98099.69;;;37.96;34.21
6413;BME280;3239;48.714;9.472;2022-08-03T10:45:39;98102.00;;;36.04;34.39
6413;BME280;3239;48.714;9.472;2022-08-03T10:48:07;98103.94;;;35.73;34.80
6413;BME280;3239;48.714;9.472;2022-08-03T10:50:33;98093.69;;;36.46;35.29
6413;BME280;3239;48.714;9.472;2022-08-03T10:53:03;98096.31;;;36.00;35.01
6413;BME280;3239;48.714;9.472;2022-08-03T10:55:39;98092.81;;;36.15;34.30
6413;BME280;3239;48.714;9.472;2022-08-03T11:01:10;98093.63;;;36.28;34.18
6413;BME280;3239;48.714;9.472;2022-08-03T11:06:20;98087.34;;;35.48;35.54
6413;BME280;3239;48.714;9.472;2022-08-03T11:08:48;98089.97;;;36.17;34.51
6413;BME280;3239;48.714;9.472;2022-08-03T11:14:09;98092.81;;;34.60;36.01
6413;BME280;3239;48.714;9.472;2022-08-03T11:17:04;98089.44;;;34.20;35.70
6413;BME280;3239;48.714;9.472;2022-08-03T11:19:45;98086.53;;;34.16;37.67
6413;BME280;3239;48.714;9.472;2022-08-03T11:22:12;98087.44;;;33.36;39.47
6413;BME280;3239;48.714;9.472;2022-08-03T11:32:52;98084.22;;;32.45;41.79
6413;BME280;3239;48.714;9.472;2022-08-03T11:40:37;98064.69;;;32.61;41.14
6413;BME280;3239;48.714;9.472;2022-08-03T11:43:07;98075.50;;;32.35;41.46
6413;BME280;3239;48.714;9.472;2022-08-03T11:45:34;98070.66;;;32.39;40.99
6413;BME280;3239;48.714;9.472;2022-08-03T11:48:21;98069.47;;;32.86;43.40
6413;BME280;3239;48.714;9.472;2022-08-03T11:50:47;98068.63;;;32.79;40.64
6413;BME280;3239;48.714;9.472;2022-08-03T11:53:15;98068.28;;;32.99;41.35
6413;BME280;3239;48.714;9.472;2022-08-03T11:55:44;98066.00;;;32.56;40.50
6413;BME280;3239;48.714;9.472;2022-08-03T11:58:21;98063.81;;;32.52;41.29
6413;BME280;3239;48.714;9.472;2022-08-03T12:00:48;98054.22;;;32.69;40.02
6413;BME280;3239;48.714;9.472;2022-08-03T12:03:17;98056.28;;;33.02;40.65
6413;BME280;3239;48.714;9.472;2022-08-03T12:05:52;98052.91;;;33.14;40.20
6413;BME280;3239;48.714;9.472;2022-08-03T12:10:55;98049.28;;;32.72;41.78
6413;BME280;3239;48.714;9.472;2022-08-03T12:13:22;98058.69;;;32.45;41.47
6413;BME280;3239;48.714;9.472;2022-08-03T12:15:55;98054.94;;;32.01;41.98
6413;BME280;3239;48.714;9.472;2022-08-03T12:18:22;98048.41;;;32.26;41.82
6413;BME280;3239;48.714;9.472;2022-08-03T12:20:50;98053.44;;;32.65;41.90
6413;BME280;3239;48.714;9.472;2022-08-03T12:23:17;98051.13;;;32.22;40.95
6413;BME280;3239;48.714;9.472;2022-08-03T12:25:45;98045.25;;;32.45;42.39
6413;BME280;3239;48.714;9.472;2022-08-03T12:28:19;98033.47;;;32.59;40.83
6413;BME280;3239;48.714;9.472;2022-08-03T12:30:51;98045.06;;;33.10;40.97
6413;BME280;3239;48.714;9.472;2022-08-03T12:33:20;98041.56;;;33.14;40.87
6413;BME280;3239;48.714;9.472;2022-08-03T12:35:50;98041.03;;;33.23;39.50
6413;BME280;3239;48.714;9.472;2022-08-03T12:38:26;98043.13;;;32.46;41.32
6413;BME280;3239;48.714;9.472;2022-08-03T12:41:04;98031.47;;;32.65;39.53
6413;BME280;3239;48.714;9.472;2022-08-03T12:43:30;98034.22;;;32.61;39.61
6413;BME280;3239;48.714;9.472;2022-08-03T12:46:36;98037.91;;;32.70;39.92
6413;BME280;3239;48.714;9.472;2022-08-03T12:49:12;98030.84;;;32.33;39.86
6413;BME280;3239;48.714;9.472;2022-08-03T12:54:17;98027.59;;;32.49;38.76
6413;BME280;3239;48.714;9.472;2022-08-03T12:57:19;98024.06;;;32.86;38.97
6413;BME280;3239;48.714;9.472;2022-08-03T12:59:45;98024.88;;;32.55;38.84
6413;BME280;3239;48.714;9.472;2022-08-03T13:02:18;98023.09;;;32.73;38.07
6413;BME280;3239;48.714;9.472;2022-08-03T13:04:46;98024.16;;;32.21;38.71
6413;BME280;3239;48.714;9.472;2022-08-03T13:07:14;98022.31;;;32.69;41.14
6413;BME280;3239;48.714;9.472;2022-08-03T13:09:54;98022.28;;;33.50;40.29
6413;BME280;3239;48.714;9.472;2022-08-03T13:12:25;98030.78;;;33.93;38.87
6413;BME280;3239;48.714;9.472;2022-08-03T13:14:55;98016.69;;;33.56;36.49
6413;BME280;3239;48.714;9.472;2022-08-03T13:17:21;98014.94;;;32.91;37.16
6413;BME280;3239;48.714;9.472;2022-08-03T13:19:48;98018.91;;;33.16;38.13
6413;BME280;3239;48.714;9.472;2022-08-03T13:22:21;98015.78;;;33.00;37.29
6413;BME280;3239;48.714;9.472;2022-08-03T13:24:50;98012.53;;;33.17;36.38
6413;BME280;3239;48.714;9.472;2022-08-03T13:27:17;98009.31;;;32.95;37.43
6413;BME280;3239;48.714;9.472;2022-08-03T13:29:43;98018.03;;;33.49;38.81
6413;BME280;3239;48.714;9.472;2022-08-03T13:32:09;98004.88;;;33.73;37.38
6413;BME280;3239;48.714;9.472;2022-08-03T13:34:36;98009.47;;;33.96;36.11
6413;BME280;3239;48.714;9.472;2022-08-03T13:37:03;98006.53;;;33.88;35.97
6413;BME280;3239;48.714;9.472;2022-08-03T13:39:29;98002.22;;;33.38;36.62
6413;BME280;3239;48.714;9.472;2022-08-03T13:41:54;98002.97;;;33.40;36.57
6413;BME280;3239;48.714;9.472;2022-08-03T13:44:21;98004.41;;;32.60;36.15
6413;BME280;3239;48.714;9.472;2022-08-03T13:46:47;97999.88;;;32.83;37.38
6413;BME280;3239;48.714;9.472;2022-08-03T13:49:13;97992.56;;;33.57;36.72
6413;BME280;3239;48.714;9.472;2022-08-03T13:51:40;97987.19;;;33.29;36.02
6413;BME280;3239;48.714;9.472;2022-08-03T13:54:07;97992.22;;;33.33;35.99
6413;BME280;3239;48.714;9.472;2022-08-03T13:56:32;97998.66;;;33.35;38.04
6413;BME280;3239;48.714;9.472;2022-08-03T13:58:59;97989.56;;;33.45;36.66
6413;BME280;3239;48.714;9.472;2022-08-03T14:01:25;97984.28;;;33.27;35.94
6413;BME280;3239;48.714;9.472;2022-08-03T14:03:51;97988.13;;;33.44;36.52
6413;BME280;3239;48.714;9.472;2022-08-03T14:06:20;97983.06;;;33.88;35.83
6413;BME280;3239;48.714;9.472;2022-08-03T14:08:46;97984.41;;;33.33;35.05